Time;durP1;ratioP1;P1;durP2;ratioP2;P2;SDS_P1;SDS_P2;PMS_P1;PMS_P2;Temp;Humidity;BMP_temperature;BMP_pressure;BME280_temperature;BME280_humidity;BME280_pressure;Samples;Min_cycle;Max_cycle;Signal;HPM_P1;HPM_P2
2022/07/12 00:00:09;;;;;;;1.45;1.35;;;17.30;99.90;;;;;;4961580;28;20201;-82
2022/07/12 00:02:38;;;;;;;2.03;1.40;;;17.30;99.90;;;;;;4965197;28;20278;-82
2022/07/12 00:05:07;;;;;;;1.65;1.55;;;17.20;99.90;;;;;;4953511;28;20201;-82
2022/07/12 00:07:34;;;;;;;1.60;1.50;;;17.10;99.90;;;;;;4967833;28;20197;-81
2022/07/12 00:10:01;;;;;;;2.22;1.35;;;16.90;99.90;;;;;;4978313;28;20204;-82
2022/07/12 00:12:29;;;;;;;1.45;1.35;;;17.00;99.90;;;;;;4978898;28;20211;-81
2022/07/12 00:14:56;;;;;;;2.83;1.27;;;16.90;99.90;;;;;;4959632;28;20223;-82
2022/07/12 00:17:24;;;;;;;1.98;1.17;;;16.80;99.90;;;;;;4978493;28;20225;-82
2022/07/12 00:19:53;;;;;;;1.48;1.38;;;16.80;99.90;;;;;;4974709;28;20202;-82
2022/07/12 00:22:22;;;;;;;1.30;1.17;;;16.70;99.90;;;;;;4959363;29;20194;-82
2022/07/12 00:24:49;;;;;;;1.50;1.23;;;16.70;99.90;;;;;;4958012;28;20200;-82
2022/07/12 00:27:17;;;;;;;1.23;1.13;;;16.70;99.90;;;;;;4978350;28;20221;-82
2022/07/12 00:29:44;;;;;;;1.27;1.15;;;16.70;99.90;;;;;;4960667;28;20212;-82
2022/07/12 00:32:12;;;;;;;1.30;1.20;;;16.70;99.90;;;;;;4978149;28;20201;-82
2022/07/12 00:34:39;;;;;;;1.40;1.30;;;16.80;99.90;;;;;;4959823;28;20224;-82
2022/07/12 00:37:08;;;;;;;1.30;1.10;;;16.70;99.90;;;;;;4977152;28;20220;-82
2022/07/12 00:39:35;;;;;;;2.60;1.13;;;16.70;99.90;;;;;;4959823;28;20193;-82
2022/07/12 00:42:04;;;;;;;1.85;1.20;;;16.70;99.90;;;;;;4973670;28;20217;-84
2022/07/12 00:44:33;;;;;;;1.13;1.13;;;16.60;99.90;;;;;;4962472;28;20204;-82
2022/07/12 00:47:02;;;;;;;1.65;1.23;;;16.60;99.90;;;;;;4977560;28;20225;-81
2022/07/12 00:49:30;;;;;;;1.77;1.20;;;16.60;99.90;;;;;;4976381;28;20564;-82
2022/07/12 00:51:58;;;;;;;2.30;1.42;;;16.60;99.90;;;;;;4959302;28;20209;-82
2022/07/12 00:54:26;;;;;;;1.45;1.35;;;16.60;99.90;;;;;;4971577;28;20198;-82
2022/07/12 00:56:55;;;;;;;1.55;1.45;;;16.60;99.90;;;;;;4958677;28;20228;-81
2022/07/12 00:59:22;;;;;;;2.15;1.23;;;16.60;99.90;;;;;;4960357;28;20601;-81
2022/07/12 01:01:50;;;;;;;1.80;1.30;;;16.50;99.90;;;;;;4959744;28;20197;-82
2022/07/12 01:04:18;;;;;;;1.70;1.40;;;16.50;99.90;;;;;;4960804;28;20197;-81
2022/07/12 01:06:46;;;;;;;1.65;1.55;;;16.50;99.90;;;;;;4944705;28;20228;-82
2022/07/12 01:09:13;;;;;;;1.70;1.40;;;16.50;99.90;;;;;;4977085;28;20204;-81
2022/07/12 01:11:42;;;;;;;2.15;1.33;;;16.50;99.90;;;;;;4968980;28;20209;-82
2022/07/12 01:14:11;;;;;;;1.90;1.45;;;16.40;99.90;;;;;;4955912;28;20225;-81
2022/07/12 01:16:39;;;;;;;1.40;1.30;;;16.40;99.90;;;;;;4966883;28;20224;-82
2022/07/12 01:19:07;;;;;;;1.60;1.50;;;16.40;99.90;;;;;;4960420;28;20201;-82
2022/07/12 01:21:39;;;;;;;1.60;1.50;;;16.40;99.90;;;;;;4953684;28;20213;-81
2022/07/12 01:24:09;;;;;;;1.50;1.40;;;16.30;99.90;;;;;;4976463;28;20215;-81
2022/07/12 01:26:37;;;;;;;1.52;1.40;;;16.30;99.90;;;;;;4959535;28;20228;-82
2022/07/12 01:29:06;;;;;;;3.22;1.75;;;16.40;99.90;;;;;;4959852;28;20663;-82
2022/07/12 01:31:35;;;;;;;1.45;1.35;;;16.40;99.90;;;;;;4953887;28;20761;-82
2022/07/12 01:34:03;;;;;;;2.38;1.80;;;16.30;99.90;;;;;;4958745;28;20205;-82
2022/07/12 01:36:31;;;;;;;1.67;1.58;;;16.20;99.90;;;;;;4960021;28;20240;-82
2022/07/12 01:38:58;;;;;;;1.80;1.70;;;16.20;99.90;;;;;;4958207;28;20590;-82
2022/07/12 01:41:28;;;;;;;2.72;2.10;;;16.20;99.90;;;;;;4957716;28;20205;-82
2022/07/12 01:43:56;;;;;;;2.15;1.92;;;16.20;99.90;;;;;;4975327;28;20197;-82
2022/07/12 01:46:23;;;;;;;2.45;1.88;;;16.20;99.90;;;;;;4958376;28;20212;-82
2022/07/12 01:48:51;;;;;;;2.30;2.10;;;16.20;99.90;;;;;;4957175;28;20201;-82
2022/07/12 01:51:18;;;;;;;1.98;1.80;;;16.20;99.90;;;;;;4956845;28;20571;-82
2022/07/12 01:53:46;;;;;;;2.13;1.90;;;16.10;99.90;;;;;;4975278;28;20201;-82
2022/07/12 01:56:14;;;;;;;2.03;1.83;;;16.10;99.90;;;;;;4964908;28;20220;-82
2022/07/12 01:58:43;;;;;;;2.25;2.05;;;16.20;99.90;;;;;;4956670;28;20205;-82
2022/07/12 02:01:11;;;;;;;2.10;1.90;;;16.30;99.90;;;;;;4971002;28;20224;-82
2022/07/12 02:03:39;;;;;;;2.20;2.00;;;16.20;99.90;;;;;;4958643;28;20216;-81
2022/07/12 02:06:06;;;;;;;2.92;1.92;;;16.10;99.90;;;;;;4976266;28;20212;-82
2022/07/12 02:08:34;;;;;;;2.33;2.13;;;16.00;99.90;;;;;;4965082;28;20205;-82
2022/07/12 02:11:01;;;;;;;1.98;1.75;;;16.00;99.90;;;;;;4973573;28;20197;-82
2022/07/12 02:13:29;;;;;;;2.10;2.00;;;16.00;99.90;;;;;;4958624;28;20209;-81
2022/07/12 02:15:58;;;;;;;2.10;2.00;;;16.00;99.90;;;;;;4967621;28;20229;-81
2022/07/12 02:18:25;;;;;;;1.73;1.60;;;15.90;99.90;;;;;;4976503;28;20200;-82
2022/07/12 02:20:53;;;;;;;1.45;1.35;;;15.90;99.90;;;;;;4967919;28;20205;-81
2022/07/12 02:23:20;;;;;;;1.52;1.42;;;15.90;99.90;;;;;;4980351;28;20196;-82
2022/07/12 02:25:48;;;;;;;1.60;1.50;;;16.00;99.90;;;;;;4975299;28;20221;-81
2022/07/12 02:28:15;;;;;;;2.42;2.10;;;16.00;99.90;;;;;;4979180;28;20201;-81
2022/07/12 02:30:43;;;;;;;2.25;2.05;;;15.90;99.90;;;;;;4959881;28;20205;-81
2022/07/12 02:33:15;;;;;;;2.30;2.10;;;15.80;99.90;;;;;;4978949;28;20197;-81
2022/07/12 02:35:43;;;;;;;2.28;2.10;;;15.80;99.90;;;;;;4962914;28;20231;-82
2022/07/12 02:38:10;;;;;;;2.40;2.20;;;15.80;99.90;;;;;;4980480;28;20189;-82
2022/07/12 02:40:56;;;;;;;2.45;2.25;;;15.80;99.90;;;;;;4964479;28;20202;-81
2022/07/12 02:43:27;;;;;;;2.35;2.15;;;15.70;99.90;;;;;;4961554;28;20201;-81
2022/07/12 02:45:56;;;;;;;4.47;2.40;;;15.70;99.90;;;;;;4978590;28;20220;-82
2022/07/12 02:48:25;;;;;;;3.65;2.65;;;15.70;99.90;;;;;;4978657;28;20219;-82
2022/07/12 02:50:53;;;;;;;3.00;2.40;;;15.70;99.90;;;;;;4962333;28;20555;-81
2022/07/12 02:53:20;;;;;;;2.42;1.70;;;15.60;99.90;;;;;;4961972;28;20570;-82
2022/07/12 02:55:48;;;;;;;2.33;2.13;;;15.60;99.90;;;;;;4962488;28;20220;-81
2022/07/12 02:58:16;;;;;;;2.03;1.92;;;15.70;99.90;;;;;;4962069;28;20200;-82
2022/07/12 03:00:44;;;;;;;2.58;2.38;;;15.60;99.90;;;;;;4962079;28;20201;-80
2022/07/12 03:03:12;;;;;;;3.40;2.53;;;15.60;99.90;;;;;;4981575;28;20580;-80
2022/07/12 03:05:42;;;;;;;3.03;2.63;;;15.60;99.90;;;;;;4960079;28;20224;-80
2022/07/12 03:08:11;;;;;;;3.10;2.88;;;15.60;99.90;;;;;;4951389;28;20209;-80
2022/07/12 03:10:39;;;;;;;2.80;2.50;;;15.50;99.90;;;;;;4960142;28;20220;-79
2022/07/12 03:13:06;;;;;;;3.10;2.80;;;15.40;99.90;;;;;;4966413;28;20647;-78
2022/07/12 03:15:34;;;;;;;5.50;2.65;;;15.30;99.90;;;;;;4963218;28;20228;-78
2022/07/12 03:18:02;;;;;;;3.58;2.90;;;15.20;99.90;;;;;;4968187;29;20221;-78
2022/07/12 03:20:31;;;;;;;2.83;2.38;;;15.20;99.90;;;;;;4979371;28;20205;-78
2022/07/12 03:23:00;;;;;;;2.70;2.30;;;15.20;99.90;;;;;;4993959;28;20202;-78
2022/07/12 03:25:27;;;;;;;2.70;2.50;;;15.30;99.90;;;;;;4983600;28;20221;-78
2022/07/12 03:27:55;;;;;;;2.53;2.10;;;15.30;99.90;;;;;;4977707;28;20197;-78
2022/07/12 03:30:22;;;;;;;3.05;2.53;;;15.30;99.90;;;;;;4959735;28;20204;-78
2022/07/12 03:32:51;;;;;;;2.92;2.63;;;15.30;99.90;;;;;;4959436;28;20201;-78
2022/07/12 03:35:18;;;;;;;2.22;2.08;;;15.40;99.90;;;;;;4959755;28;20216;-78
2022/07/12 03:37:49;;;;;;;3.05;2.78;;;15.40;99.90;;;;;;4958048;28;20209;-78
2022/07/12 03:40:19;;;;;;;3.40;2.95;;;15.20;99.90;;;;;;4974547;28;20202;-81
2022/07/12 03:42:48;;;;;;;3.45;2.65;;;15.20;99.90;;;;;;4980602;28;20212;-80
2022/07/12 03:45:15;;;;;;;5.03;2.70;;;15.20;99.90;;;;;;4982678;28;20216;-81
2022/07/12 03:47:43;;;;;;;3.70;2.80;;;15.20;99.90;;;;;;4964112;28;20198;-81
2022/07/12 03:50:13;;;;;;;3.63;2.60;;;15.20;99.90;;;;;;4956438;28;20224;-80
2022/07/12 03:52:41;;;;;;;2.60;2.40;;;15.20;99.90;;;;;;4959692;28;20224;-81
2022/07/12 03:55:10;;;;;;;3.47;2.30;;;15.20;99.90;;;;;;4964081;28;20209;-81
2022/07/12 03:57:39;;;;;;;3.95;2.63;;;15.20;99.90;;;;;;4987458;28;20236;-81
2022/07/12 04:00:09;;;;;;;3.17;2.88;;;15.10;99.90;;;;;;4961706;28;20197;-80
2022/07/12 04:02:37;;;;;;;3.08;2.67;;;15.10;99.90;;;;;;4960846;28;20679;-83
2022/07/12 04:05:06;;;;;;;3.05;2.78;;;15.00;99.90;;;;;;4964033;28;20200;-83
2022/07/12 04:07:34;;;;;;;3.40;2.78;;;15.10;99.90;;;;;;4981361;28;20196;-83
2022/07/12 04:10:01;;;;;;;2.97;2.30;;;15.10;99.90;;;;;;4956552;28;20220;-83
2022/07/12 04:12:29;;;;;;;3.00;2.80;;;15.20;99.90;;;;;;4968935;28;20210;-83
2022/07/12 04:14:57;;;;;;;2.70;2.50;;;15.30;99.90;;;;;;4980647;28;20213;-83
2022/07/12 04:17:25;;;;;;;2.80;2.45;;;15.30;99.90;;;;;;4979877;28;20705;-83
2022/07/12 04:19:52;;;;;;;3.13;2.60;;;15.40;99.90;;;;;;4980441;28;20200;-83
2022/07/12 04:22:22;;;;;;;3.00;2.47;;;15.50;99.90;;;;;;4956193;28;20201;-83
2022/07/12 04:24:49;;;;;;;3.70;2.72;;;15.50;99.90;;;;;;4968681;28;20206;-83
2022/07/12 04:27:17;;;;;;;4.60;2.63;;;15.60;99.90;;;;;;4959974;28;20220;-83
2022/07/12 04:29:45;;;;;;;3.42;2.50;;;15.50;99.90;;;;;;4980133;28;20197;-83
2022/07/12 04:32:14;;;;;;;3.00;2.70;;;15.60;99.90;;;;;;4945682;29;20205;-82
2022/07/12 04:34:41;;;;;;;4.95;2.67;;;15.60;99.90;;;;;;4949292;28;20208;-83
2022/07/12 04:37:09;;;;;;;4.57;3.20;;;15.70;99.90;;;;;;4962575;28;20228;-82
2022/07/12 04:39:36;;;;;;;3.75;2.83;;;15.90;99.90;;;;;;4954651;29;20210;-83
2022/07/12 04:42:05;;;;;;;4.10;2.60;;;15.90;99.90;;;;;;4954383;28;20206;-83
2022/07/12 04:44:32;;;;;;;4.32;3.15;;;15.90;99.90;;;;;;4963697;28;20216;-83
2022/07/12 04:47:00;;;;;;;3.92;3.03;;;16.00;99.90;;;;;;4963359;28;20217;-83
2022/07/12 04:49:29;;;;;;;4.57;3.28;;;16.00;99.90;;;;;;4978249;28;20670;-83
2022/07/12 04:51:56;;;;;;;3.45;2.83;;;16.10;99.90;;;;;;4995474;28;20204;-83
2022/07/12 04:54:24;;;;;;;3.97;3.20;;;16.20;99.90;;;;;;4954470;28;20217;-83
2022/07/12 04:56:51;;;;;;;3.55;3.25;;;16.20;99.90;;;;;;4964998;28;20232;-82
2022/07/12 04:59:19;;;;;;;3.35;3.05;;;16.20;99.90;;;;;;4958376;28;20205;-82
2022/07/12 05:01:46;;;;;;;5.03;3.30;;;16.30;99.90;;;;;;4991322;28;20193;-82
2022/07/12 05:04:14;;;;;;;4.63;3.50;;;16.40;99.90;;;;;;4992471;28;20189;-83
2022/07/12 05:06:42;;;;;;;7.55;4.22;;;16.60;99.90;;;;;;4978594;28;20217;-83
2022/07/12 05:09:10;;;;;;;6.53;5.05;;;16.70;99.90;;;;;;4976305;28;20192;-83
2022/07/12 05:11:37;;;;;;;5.00;4.40;;;16.70;99.90;;;;;;4972415;28;20205;-83
2022/07/12 05:14:05;;;;;;;6.72;4.35;;;16.70;99.90;;;;;;4955149;28;20572;-83
2022/07/12 05:16:32;;;;;;;5.22;4.72;;;16.70;99.90;;;;;;4983269;28;20229;-83
2022/07/12 05:19:01;;;;;;;5.03;4.63;;;16.80;99.90;;;;;;4960185;28;20193;-83
2022/07/12 05:21:29;;;;;;;4.82;4.43;;;16.80;99.90;;;;;;4951204;28;20205;-83
2022/07/12 05:23:57;;;;;;;5.35;4.55;;;16.90;99.90;;;;;;4986115;28;20196;-83
2022/07/12 05:26:25;;;;;;;4.45;4.05;;;17.10;99.90;;;;;;4960764;28;20224;-83
2022/07/12 05:28:52;;;;;;;5.03;4.50;;;17.20;99.90;;;;;;4980852;28;20671;-83
2022/07/12 05:31:20;;;;;;;6.70;5.32;;;17.30;99.90;;;;;;4978265;28;20208;-83
2022/07/12 05:33:47;;;;;;;4.93;4.50;;;17.40;99.90;;;;;;4961737;28;20207;-83
2022/07/12 05:36:15;;;;;;;5.05;4.40;;;17.40;99.90;;;;;;4961526;28;20224;-83
2022/07/12 05:38:42;;;;;;;5.88;4.55;;;17.50;99.90;;;;;;4955013;28;20228;-83
2022/07/12 05:41:12;;;;;;;4.20;3.90;;;17.50;99.90;;;;;;4959363;28;21516;-83
2022/07/12 05:43:39;;;;;;;5.05;4.50;;;17.60;99.90;;;;;;4968745;28;20212;-83
2022/07/12 05:46:08;;;;;;;6.93;4.60;;;17.70;99.90;;;;;;4971698;28;20213;-83
2022/07/12 05:48:36;;;;;;;5.40;3.97;;;17.80;99.90;;;;;;4964816;28;20200;-83
2022/07/12 05:53:45;;;;;;;4.65;4.25;;;17.90;99.90;;;;;;4962085;28;20197;-83
2022/07/12 05:56:14;;;;;;;5.05;4.32;;;18.00;99.90;;;;;;4962508;28;20594;-83
2022/07/12 05:58:42;;;;;;;4.35;3.85;;;18.10;99.90;;;;;;4970590;28;20220;-83
2022/07/12 06:01:11;;;;;;;4.32;3.85;;;18.20;99.90;;;;;;4953639;28;20549;-83
2022/07/12 06:03:39;;;;;;;4.72;3.63;;;18.40;99.90;;;;;;4951804;28;20623;-83
2022/07/12 06:06:06;;;;;;;4.13;3.78;;;18.50;99.90;;;;;;4961729;28;20213;-83
2022/07/12 06:08:34;;;;;;;4.53;4.13;;;18.50;99.90;;;;;;4960516;28;20197;-83
2022/07/12 06:11:01;;;;;;;4.72;3.72;;;18.60;99.90;;;;;;4945973;28;20200;-83
2022/07/12 06:13:31;;;;;;;3.75;3.45;;;18.70;99.90;;;;;;4962963;28;20210;-83
2022/07/12 06:15:59;;;;;;;4.18;3.70;;;18.80;99.90;;;;;;4958972;28;20229;-83
2022/07/12 06:18:26;;;;;;;4.68;3.85;;;18.90;99.90;;;;;;4943808;28;20217;-84
2022/07/12 06:20:54;;;;;;;4.40;3.97;;;19.00;99.90;;;;;;4961493;28;20285;-83
2022/07/12 06:23:21;;;;;;;5.40;3.83;;;19.10;99.90;;;;;;4980129;28;20205;-83
2022/07/12 06:25:49;;;;;;;5.38;4.57;;;19.20;99.90;;;;;;4973841;28;20224;-83
2022/07/12 06:28:16;;;;;;;4.38;3.85;;;19.30;99.90;;;;;;4977312;28;20184;-83
2022/07/12 06:30:45;;;;;;;4.97;4.00;;;19.40;99.90;;;;;;4981083;28;20201;-83
2022/07/12 06:33:13;;;;;;;4.97;4.30;;;19.40;99.90;;;;;;4963844;28;20281;-83
2022/07/12 06:35:40;;;;;;;4.25;3.85;;;19.50;99.90;;;;;;4958888;28;20240;-83
2022/07/12 06:38:08;;;;;;;4.50;4.10;;;19.50;99.90;;;;;;4975544;28;20222;-83
2022/07/12 06:40:36;;;;;;;4.75;4.15;;;19.50;99.90;;;;;;4952854;28;20196;-83
2022/07/12 06:43:04;;;;;;;4.60;4.20;;;19.50;99.90;;;;;;4960864;28;20569;-83
2022/07/12 06:45:32;;;;;;;4.93;3.95;;;19.60;99.90;;;;;;4953600;28;20225;-83
2022/07/12 06:48:01;;;;;;;3.92;3.63;;;19.60;99.90;;;;;;4963210;28;20197;-83
2022/07/12 06:50:28;;;;;;;4.28;3.80;;;19.70;99.90;;;;;;4979156;28;20195;-83
2022/07/12 06:52:56;;;;;;;6.43;5.82;;;19.80;99.90;;;;;;4976496;28;20209;-83
2022/07/12 06:55:24;;;;;;;4.18;3.88;;;19.90;99.90;;;;;;4962491;28;20236;-83
2022/07/12 06:57:51;;;;;;;9.93;7.90;;;20.00;99.90;;;;;;4961913;28;20227;-83
2022/07/12 07:00:19;;;;;;;4.13;3.83;;;20.10;99.90;;;;;;4982058;28;20200;-83
2022/07/12 07:02:46;;;;;;;5.72;4.22;;;20.10;99.90;;;;;;4959288;28;20213;-83
2022/07/12 07:05:17;;;;;;;4.65;4.35;;;20.00;99.90;;;;;;4955018;28;20205;-83
2022/07/12 07:07:45;;;;;;;4.18;3.78;;;20.00;99.90;;;;;;4977819;28;20204;-83
2022/07/12 07:10:13;;;;;;;5.15;4.68;;;20.10;99.90;;;;;;4949361;29;20209;-83
2022/07/12 07:12:40;;;;;;;4.53;4.13;;;20.20;99.90;;;;;;4947682;28;20584;-84
2022/07/12 07:15:08;;;;;;;4.10;3.80;;;20.10;99.90;;;;;;4966454;28;20204;-84
2022/07/12 07:17:35;;;;;;;4.30;3.90;;;20.30;99.90;;;;;;4965775;28;20216;-84
2022/07/12 07:20:04;;;;;;;4.45;4.05;;;20.40;99.90;;;;;;4965743;28;20213;-83
2022/07/12 07:22:33;;;;;;;8.52;7.57;;;20.50;99.90;;;;;;4959822;28;20210;-83
2022/07/12 07:25:00;;;;;;;4.68;4.15;;;20.50;99.90;;;;;;4977191;28;20201;-83
2022/07/12 07:27:29;;;;;;;4.70;4.30;;;20.60;99.90;;;;;;4965750;28;20212;-84
2022/07/12 07:32:44;;;;;;;4.75;4.10;;;20.70;99.90;;;;;;4979487;28;20205;-83
2022/07/12 07:35:13;;;;;;;4.75;3.85;;;20.60;99.90;;;;;;4990303;28;20200;-83
2022/07/12 07:37:41;;;;;;;6.82;3.33;;;20.60;99.90;;;;;;4966054;28;20710;-83
2022/07/12 07:40:10;;;;;;;4.63;3.92;;;20.70;99.90;;;;;;4966568;28;20208;-83
2022/07/12 07:42:38;;;;;;;5.43;4.05;;;20.80;99.90;;;;;;4960801;29;20201;-83
2022/07/12 07:45:07;;;;;;;3.25;3.05;;;20.90;99.90;;;;;;4976421;28;20587;-83
2022/07/12 07:47:44;;;;;;;2.50;2.30;;;21.00;99.90;;;;;;4981360;28;20204;-84
2022/07/12 07:50:11;;;;;;;3.28;2.97;;;21.10;99.90;;;;;;4961749;28;20197;-84
2022/07/12 07:52:40;;;;;;;2.90;2.70;;;21.20;99.90;;;;;;4968664;28;20574;-84
2022/07/12 07:55:09;;;;;;;2.90;2.70;;;21.00;99.90;;;;;;4960400;28;20202;-83
2022/07/12 07:57:36;;;;;;;2.70;2.50;;;21.00;99.90;;;;;;4947958;29;20205;-83
2022/07/12 08:00:05;;;;;;;3.75;2.25;;;21.10;99.90;;;;;;4960384;28;20213;-84
2022/07/12 08:02:39;;;;;;;3.58;2.15;;;21.20;99.90;;;;;;4982693;28;20200;-83
2022/07/12 08:05:07;;;;;;;3.20;2.28;;;21.20;99.90;;;;;;4977986;28;20220;-83
2022/07/12 08:07:35;;;;;;;3.42;2.10;;;21.30;99.90;;;;;;4965994;28;20201;-84
2022/07/12 08:10:04;;;;;;;2.47;2.28;;;21.40;99.90;;;;;;4975679;28;20197;-84
2022/07/12 08:12:32;;;;;;;2.30;2.10;;;21.50;99.90;;;;;;4977327;28;20694;-84
2022/07/12 08:14:59;;;;;;;2.08;1.83;;;21.50;99.90;;;;;;4981050;28;20216;-84
2022/07/12 08:17:27;;;;;;;2.22;2.10;;;21.50;99.90;;;;;;4965108;28;20725;-83
2022/07/12 08:19:54;;;;;;;2.80;2.60;;;21.50;99.90;;;;;;4961609;28;20224;-84
2022/07/12 08:22:22;;;;;;;3.08;2.20;;;21.40;99.90;;;;;;4975138;28;20205;-84
2022/07/12 08:24:50;;;;;;;3.55;2.72;;;21.50;99.90;;;;;;4963461;28;20196;-84
2022/07/12 08:27:19;;;;;;;5.50;3.65;;;21.60;99.90;;;;;;4955097;28;20224;-84
2022/07/12 08:29:46;;;;;;;2.67;2.38;;;21.70;99.90;;;;;;4965087;28;20201;-84
2022/07/12 08:32:14;;;;;;;2.35;2.25;;;21.80;99.90;;;;;;4981515;28;20202;-83
2022/07/12 08:34:41;;;;;;;2.60;1.60;;;21.80;99.90;;;;;;4976663;28;20201;-84
2022/07/12 08:37:09;;;;;;;2.45;2.13;;;21.80;99.90;;;;;;4964540;28;20221;-83
2022/07/12 08:39:37;;;;;;;2.47;2.22;;;21.90;99.90;;;;;;4965270;28;20244;-84
2022/07/12 08:42:08;;;;;;;2.95;2.72;;;22.00;99.90;;;;;;4965530;28;20213;-84
2022/07/12 08:44:37;;;;;;;3.28;2.58;;;22.00;99.90;;;;;;4961071;28;20205;-84
2022/07/12 08:47:08;;;;;;;2.63;1.88;;;22.00;99.90;;;;;;4976078;28;20224;-84
2022/07/12 08:49:36;;;;;;;2.22;2.03;;;22.10;99.90;;;;;;4980619;28;20678;-86
2022/07/12 08:52:25;;;;;;;1.92;1.77;;;22.00;99.90;;;;;;4965251;28;20212;-84
2022/07/12 08:54:53;;;;;;;1.92;1.83;;;22.10;99.90;;;;;;4980361;28;20196;-84
2022/07/12 08:57:30;;;;;;;2.20;2.00;;;22.10;99.90;;;;;;4979314;28;20225;-84
2022/07/12 09:00:02;;;;;;;2.63;2.25;;;22.20;99.90;;;;;;4982012;28;20205;-84
2022/07/12 09:02:45;;;;;;;3.45;1.80;;;22.20;99.90;;;;;;4964063;28;20200;-84
2022/07/12 09:05:13;;;;;;;2.20;2.00;;;22.40;99.90;;;;;;4981247;28;20201;-84
2022/07/12 09:07:41;;;;;;;2.22;2.00;;;22.50;99.90;;;;;;4965499;28;20201;-84
2022/07/12 09:10:10;;;;;;;1.90;1.80;;;22.50;99.90;;;;;;4963161;28;20224;-85
2022/07/12 09:12:38;;;;;;;2.85;2.20;;;22.30;99.90;;;;;;4962287;28;20197;-85
2022/07/12 09:15:15;;;;;;;2.25;1.90;;;22.20;99.90;;;;;;4959508;28;20197;-85
2022/07/12 09:17:47;;;;;;;4.78;1.60;;;22.50;99.90;;;;;;4960158;28;20208;-86
2022/07/12 09:20:16;;;;;;;2.13;1.50;;;22.60;99.90;;;;;;4977167;28;20572;-85
2022/07/12 09:22:53;;;;;;;3.70;2.00;;;22.70;99.90;;;;;;4961063;28;20303;-85
2022/07/12 09:25:21;;;;;;;3.92;2.05;;;22.50;99.90;;;;;;4962198;28;20201;-85
2022/07/12 09:27:54;;;;;;;3.22;2.25;;;22.50;99.90;;;;;;4962261;28;20208;-85
2022/07/12 09:30:23;;;;;;;3.38;2.20;;;22.50;99.90;;;;;;4962347;28;20207;-85
2022/07/12 09:38:28;;;;;;;9.40;2.55;;;22.70;99.90;;;;;;4961232;28;20170;-85
2022/07/12 09:40:56;;;;;;;7.50;1.95;;;22.90;99.90;;;;;;4961174;28;20220;-85
2022/07/12 09:43:25;;;;;;;3.08;1.50;;;23.10;99.90;;;;;;4955533;28;20211;-86
2022/07/12 09:45:54;;;;;;;4.32;1.50;;;23.20;99.90;;;;;;4962598;28;20216;-85
2022/07/12 09:48:22;;;;;;;4.05;2.20;;;23.30;99.90;;;;;;4978802;28;20204;-85
2022/07/12 09:50:51;;;;;;;3.42;1.88;;;23.40;99.90;;;;;;4961944;28;20209;-85
2022/07/12 09:53:23;;;;;;;1.67;1.55;;;23.30;99.90;;;;;;4961926;28;20201;-85
2022/07/12 09:55:51;;;;;;;3.95;1.88;;;23.30;99.90;;;;;;4949820;28;20236;-86
2022/07/12 09:58:25;;;;;;;2.30;2.10;;;23.30;99.90;;;;;;4961677;28;20197;-85
2022/07/12 10:00:55;;;;;;;3.05;2.25;;;23.20;99.90;;;;;;4976159;28;20209;-86
2022/07/12 10:03:24;;;;;;;2.25;1.38;;;23.20;99.90;;;;;;4968749;28;20205;-86
2022/07/12 10:05:53;;;;;;;1.98;1.55;;;23.20;99.90;;;;;;4959937;28;20221;-86
2022/07/12 10:08:22;;;;;;;1.80;1.15;;;23.30;99.90;;;;;;4961890;28;20201;-86
2022/07/12 10:10:50;;;;;;;1.33;1.23;;;23.50;99.90;;;;;;4965561;28;20193;-85
2022/07/12 10:13:20;;;;;;;2.17;1.40;;;23.60;99.90;;;;;;4959983;28;20539;-86
2022/07/12 10:15:50;;;;;;;2.05;1.58;;;23.60;99.90;;;;;;4954080;28;20227;-85
2022/07/12 10:18:20;;;;;;;2.30;1.55;;;23.60;99.90;;;;;;4962013;28;20204;-86
2022/07/12 10:20:49;;;;;;;3.30;1.55;;;23.70;99.90;;;;;;4978425;28;20220;-86
2022/07/12 10:23:30;;;;;;;3.33;1.60;;;23.80;99.90;;;;;;4964443;28;20205;-85
2022/07/12 10:25:58;;;;;;;1.95;1.80;;;23.90;99.90;;;;;;4954961;28;20232;-86
2022/07/12 10:29:11;;;;;;;1.50;1.40;;;23.80;99.90;;;;;;4951944;28;20217;-86
2022/07/12 10:31:41;;;;;;;1.13;1.00;;;23.90;99.90;;;;;;4973039;28;20698;-85
2022/07/12 10:34:12;;;;;;;2.10;1.27;;;24.10;99.10;;;;;;4974446;28;20212;-86
2022/07/12 10:37:13;;;;;;;2.22;1.30;;;24.30;98.60;;;;;;4964427;28;20217;-86
2022/07/12 10:39:41;;;;;;;2.10;1.20;;;24.40;97.20;;;;;;4884744;29;20235;-86
2022/07/12 10:42:16;;;;;;;3.50;1.50;;;24.50;96.30;;;;;;4895830;29;20203;-86
2022/07/12 10:44:46;;;;;;;2.15;1.15;;;24.60;96.60;;;;;;4931008;28;20217;-85
2022/07/12 10:47:18;;;;;;;1.42;0.80;;;24.70;96.10;;;;;;4979209;28;20232;-86
2022/07/12 10:49:52;;;;;;;1.20;1.10;;;24.90;95.60;;;;;;4964019;28;20559;-86
2022/07/12 10:52:27;;;;;;;1.88;1.10;;;24.90;95.10;;;;;;4964512;28;20196;-86
2022/07/12 10:55:17;;;;;;;3.83;1.20;;;24.90;95.40;;;;;;4962331;28;20211;-86
2022/07/12 10:57:46;;;;;;;2.63;1.30;;;25.00;94.70;;;;;;4966080;28;20204;-86
2022/07/12 11:00:22;;;;;;;1.10;0.77;;;24.90;94.10;;;;;;4972225;28;20663;-86
2022/07/12 11:02:50;;;;;;;2.38;0.98;;;25.10;94.10;;;;;;4954289;28;20209;-86
2022/07/12 11:05:26;;;;;;;1.98;1.00;;;25.00;93.30;;;;;;4978835;28;20212;-86
2022/07/12 11:07:55;;;;;;;1.13;0.80;;;24.80;93.60;;;;;;4979207;28;20203;-87
2022/07/12 11:10:23;;;;;;;1.00;0.90;;;24.90;93.50;;;;;;4979304;28;20204;-86
2022/07/12 11:12:55;;;;;;;2.08;1.25;;;25.20;92.80;;;;;;4978377;28;20197;-86
2022/07/12 11:15:26;;;;;;;1.70;1.00;;;25.30;92.10;;;;;;4971960;28;20216;-87
2022/07/12 11:17:53;;;;;;;1.45;1.10;;;25.30;92.50;;;;;;4984417;28;20208;-85
2022/07/12 11:20:28;;;;;;;2.60;0.90;;;25.40;91.50;;;;;;4967517;28;20240;-85
2022/07/12 11:22:56;;;;;;;1.88;0.70;;;25.50;90.30;;;;;;4977730;28;20197;-85
2022/07/12 11:25:26;;;;;;;1.42;0.80;;;25.60;89.50;;;;;;4975141;28;20207;-85
2022/07/12 11:27:53;;;;;;;1.23;0.77;;;25.60;88.30;;;;;;4960441;28;20204;-85
2022/07/12 11:30:21;;;;;;;1.90;0.77;;;25.60;87.50;;;;;;4967005;28;20201;-81
2022/07/12 11:32:50;;;;;;;0.90;0.80;;;25.80;88.50;;;;;;4968916;28;20209;-82
2022/07/12 11:35:19;;;;;;;1.58;0.98;;;25.70;88.00;;;;;;4961627;28;20206;-82
2022/07/12 11:37:56;;;;;;;2.25;1.05;;;25.70;89.10;;;;;;4964824;28;20205;-82
2022/07/12 11:40:25;;;;;;;1.15;1.05;;;25.90;88.90;;;;;;4964908;28;20227;-82
2022/07/12 11:42:55;;;;;;;2.05;1.38;;;26.30;88.50;;;;;;4956829;28;20201;-82
2022/07/12 11:45:22;;;;;;;2.95;1.10;;;26.30;87.00;;;;;;4965535;28;20255;-82
2022/07/12 11:47:51;;;;;;;2.60;1.77;;;26.20;85.00;;;;;;4981730;28;20212;-81
2022/07/12 11:50:20;;;;;;;1.98;1.30;;;25.90;85.40;;;;;;4981233;28;20209;-81
2022/07/12 11:52:47;;;;;;;1.42;0.95;;;25.80;85.80;;;;;;4986273;28;20207;-80
2022/07/12 11:55:16;;;;;;;1.38;1.00;;;25.90;85.80;;;;;;4978242;28;20203;-80
2022/07/12 11:57:44;;;;;;;1.73;1.10;;;25.90;82.50;;;;;;4978401;28;20201;-80
2022/07/12 12:00:20;;;;;;;1.08;0.98;;;26.00;84.00;;;;;;4976252;28;20223;-80
2022/07/12 12:02:52;;;;;;;1.77;0.88;;;26.30;81.10;;;;;;4977282;28;20202;-80
2022/07/12 12:05:20;;;;;;;1.13;0.80;;;26.50;80.50;;;;;;4981238;28;20207;-80
2022/07/12 12:07:48;;;;;;;1.52;1.00;;;26.60;82.00;;;;;;4982730;28;20181;-80
2022/07/12 12:10:18;;;;;;;1.25;1.10;;;26.80;79.70;;;;;;4980991;28;20201;-80
2022/07/12 12:12:47;;;;;;;1.08;1.00;;;26.90;76.40;;;;;;4989991;28;20203;-81
2022/07/12 12:15:17;;;;;;;2.03;0.95;;;27.10;73.90;;;;;;4999828;28;20173;-81
2022/07/12 12:17:46;;;;;;;1.23;0.68;;;27.00;71.00;;;;;;4999549;28;20185;-80
2022/07/12 12:20:16;;;;;;;1.25;1.13;;;27.20;70.40;;;;;;4999177;28;20197;-81
2022/07/12 12:22:45;;;;;;;2.05;0.90;;;27.30;68.70;;;;;;4982102;28;20193;-81
2022/07/12 12:25:14;;;;;;;1.13;0.63;;;27.60;66.90;;;;;;4997718;28;20216;-81
2022/07/12 12:27:44;;;;;;;0.85;0.80;;;27.80;64.90;;;;;;4985577;28;20205;-81
2022/07/12 12:30:13;;;;;;;2.08;0.90;;;27.80;63.50;;;;;;4994427;28;20207;-81
2022/07/12 12:32:52;;;;;;;1.30;0.90;;;28.00;62.60;;;;;;4989652;28;20660;-81
2022/07/12 12:35:21;;;;;;;1.42;0.93;;;27.80;60.50;;;;;;4976500;28;20215;-80
2022/07/12 12:37:53;;;;;;;2.08;1.00;;;27.80;61.60;;;;;;4994325;28;20193;-80
2022/07/12 12:40:25;;;;;;;2.17;0.85;;;27.50;60.70;;;;;;4992344;28;20255;-80
2022/07/12 12:43:05;;;;;;;4.53;1.02;;;27.30;58.60;;;;;;4994197;28;20200;-80
2022/07/12 12:45:33;;;;;;;1.10;1.00;;;27.40;59.40;;;;;;4975598;28;20225;-80
2022/07/12 12:48:02;;;;;;;1.55;0.90;;;27.80;60.70;;;;;;4992325;28;20193;-80
2022/07/12 12:50:47;;;;;;;2.00;1.00;;;28.00;61.30;;;;;;4991797;28;20193;-80
2022/07/12 12:53:16;;;;;;;0.95;0.80;;;28.50;61.30;;;;;;5008848;28;20203;-81
2022/07/12 12:55:46;;;;;;;1.63;0.90;;;28.50;59.80;;;;;;5008366;28;20228;-81
2022/07/12 12:58:16;;;;;;;1.30;0.73;;;28.80;57.80;;;;;;4992282;28;20211;-81
2022/07/12 13:00:45;;;;;;;1.50;0.90;;;28.50;58.20;;;;;;4990114;28;20209;-81
2022/07/12 13:03:14;;;;;;;1.23;0.90;;;28.60;57.90;;;;;;4995991;28;20205;-81
2022/07/12 13:05:42;;;;;;;1.00;0.70;;;28.40;56.80;;;;;;4992937;28;20213;-81
2022/07/12 13:08:12;;;;;;;1.17;0.80;;;28.50;56.00;;;;;;4991898;28;20203;-81